Time;durP1;ratioP1;P1;durP2;ratioP2;P2;SDS_P1;SDS_P2;PMS_P1;PMS_P2;Temp;Humidity;BMP_temperature;BMP_pressure;BME280_temperature;BME280_humidity;BME280_pressure;Samples;Min_cycle;Max_cycle;Signal;HPM_P1;HPM_P2
2022/06/28 00:02:26;;;;;;;13.70;10.82;;;;;;;23.02;62.95;100881.16;1728618;80;21775;-49
2022/06/28 00:04:52;;;;;;;10.75;9.35;;;;;;;22.99;62.91;100873.49;1741070;80;21682;-49
2022/06/28 00:07:19;;;;;;;11.40;10.20;;;;;;;22.95;62.80;100882.97;1737798;80;22389;-49
2022/06/28 00:09:46;;;;;;;13.68;10.78;;;;;;;22.90;62.84;100875.48;1732314;80;21043;-50
2022/06/28 00:12:13;;;;;;;12.68;11.12;;;;;;;22.89;62.97;100875.67;1732048;80;21131;-49
2022/06/28 00:17:24;;;;;;;11.57;9.70;;;;;;;22.99;62.85;100876.17;1743871;80;21113;-49
2022/06/28 00:19:52;;;;;;;12.37;10.43;;;;;;;23.02;62.66;100877.14;1738958;80;21418;-49
2022/06/28 00:22:18;;;;;;;12.35;10.53;;;;;;;23.03;62.26;100873.41;1746431;80;21521;-49
2022/06/28 00:24:45;;;;;;;14.05;9.78;;;;;;;23.03;61.97;100872.59;1744243;80;21148;-49
2022/06/28 00:27:11;;;;;;;11.12;9.48;;;;;;;23.02;61.71;100873.63;1744198;80;21116;-49
2022/06/28 00:29:38;;;;;;;12.00;9.78;;;;;;;22.99;61.49;100866.78;1738900;80;21038;-49
2022/06/28 00:32:06;;;;;;;11.38;10.18;;;;;;;22.93;61.60;100864.37;1745750;80;21074;-49
2022/06/28 00:34:33;;;;;;;10.45;9.25;;;;;;;22.87;61.77;100871.02;1743059;80;21094;-49
2022/06/28 00:36:59;;;;;;;13.98;10.35;;;;;;;22.80;61.93;100871.77;1745166;80;21123;-49
2022/06/28 00:39:26;;;;;;;13.68;10.20;;;;;;;22.77;61.94;100865.97;1744125;80;21082;-49
2022/06/28 00:41:53;;;;;;;12.37;10.32;;;;;;;22.80;61.79;100865.06;1745720;80;21065;-49
2022/06/28 00:44:20;;;;;;;13.83;10.48;;;;;;;22.84;61.78;100862.00;1745114;80;21050;-49
2022/06/28 00:46:47;;;;;;;12.98;10.88;;;;;;;22.85;61.79;100866.33;1721256;82;21054;-49
2022/06/28 00:49:14;;;;;;;13.98;10.80;;;;;;;22.85;61.80;100863.65;1744090;80;21125;-49
2022/06/28 00:51:41;;;;;;;12.07;9.53;;;;;;;22.81;61.96;100860.03;1744248;80;21050;-49
2022/06/28 00:54:08;;;;;;;11.53;10.23;;;;;;;22.78;62.08;100855.05;1744366;80;21149;-49
2022/06/28 00:56:35;;;;;;;15.90;11.08;;;;;;;22.72;62.11;100858.48;1731026;80;21011;-49
2022/06/28 00:59:01;;;;;;;14.60;9.60;;;;;;;22.68;62.00;100865.27;1743773;81;21070;-49
2022/06/28 01:01:28;;;;;;;11.50;10.13;;;;;;;22.65;61.90;100871.00;1745768;80;21140;-49
2022/06/28 01:03:55;;;;;;;11.93;10.50;;;;;;;22.64;61.87;100869.33;1714196;82;21106;-50
2022/06/28 01:06:21;;;;;;;14.83;10.60;;;;;;;22.62;61.70;100869.52;1736460;80;21012;-49
2022/06/28 01:08:49;;;;;;;15.48;10.50;;;;;;;22.59;61.86;100862.38;1742218;80;21509;-49
2022/06/28 01:11:21;;;;;;;14.68;10.03;;;;;;;22.55;62.18;100870.48;1745922;80;21065;-49
2022/06/28 01:14:02;;;;;;;15.25;10.05;;;;;;;22.52;62.50;100869.00;1746186;80;21152;-48
2022/06/28 01:16:31;;;;;;;11.80;9.35;;;;;;;22.44;63.11;100872.65;1741889;80;21047;-49
2022/06/28 01:19:00;;;;;;;11.30;9.68;;;;;;;22.37;63.68;100871.72;1754251;80;21499;-48
2022/06/28 01:21:29;;;;;;;13.13;9.40;;;;;;;22.36;63.99;100871.42;1766680;80;21079;-48
2022/06/28 01:23:57;;;;;;;14.45;10.45;;;;;;;22.38;64.02;100869.38;1766184;80;21034;-48
2022/06/28 01:26:32;;;;;;;14.38;10.72;;;;;;;22.41;64.18;100873.02;1736879;80;21873;-50
2022/06/28 01:28:59;;;;;;;12.70;10.58;;;;;;;22.43;64.23;100866.13;1763713;80;21042;-49
2022/06/28 01:31:27;;;;;;;13.20;10.55;;;;;;;22.40;64.39;100870.00;1713660;82;21067;-49
2022/06/28 01:33:54;;;;;;;13.30;11.85;;;;;;;22.41;64.26;100868.18;1764086;80;21055;-49
2022/06/28 01:36:21;;;;;;;13.15;10.63;;;;;;;22.45;63.88;100859.55;1715810;81;21012;-49
2022/06/28 01:38:50;;;;;;;16.27;11.53;;;;;;;22.48;63.53;100862.38;1775095;80;21265;-49
2022/06/28 01:41:34;;;;;;;12.15;10.23;;;;;;;22.48;63.51;100857.50;1772636;80;21526;-49
2022/06/28 01:44:09;;;;;;;11.63;10.15;;;;;;;22.39;63.64;100864.34;1756961;80;21054;-48
2022/06/28 01:46:39;;;;;;;11.12;9.75;;;;;;;22.30;63.81;100866.80;1749811;80;21787;-48
2022/06/28 01:49:07;;;;;;;10.72;9.65;;;;;;;22.33;63.96;100860.25;1738462;80;21082;-48
2022/06/28 01:51:35;;;;;;;13.85;9.78;;;;;;;22.35;64.12;100861.70;1734489;80;21136;-50
2022/06/28 01:54:02;;;;;;;12.78;11.48;;;;;;;22.37;64.06;100867.70;1756124;80;21168;-48
2022/06/28 01:56:31;;;;;;;13.83;11.68;;;;;;;22.39;64.02;100868.36;1762029;80;21463;-48
2022/06/28 01:59:00;;;;;;;13.50;11.12;;;;;;;22.41;63.83;100867.66;1776601;80;21051;-49
2022/06/28 02:01:28;;;;;;;12.93;11.53;;;;;;;22.42;63.63;100863.94;1765791;80;21510;-48
2022/06/28 02:03:56;;;;;;;15.00;11.08;;;;;;;22.40;63.54;100859.28;1762135;80;22045;-49
2022/06/28 02:06:33;;;;;;;12.55;10.15;;;;;;;22.35;64.02;100859.02;1754686;80;21502;-49
2022/06/28 02:09:02;;;;;;;12.07;10.28;;;;;;;22.37;64.01;100865.53;1752162;80;21102;-49
2022/06/28 02:11:30;;;;;;;15.35;10.70;;;;;;;22.37;63.89;100865.02;1761477;80;21747;-49
2022/06/28 02:13:57;;;;;;;11.88;10.38;;;;;;;22.38;64.77;100859.98;1781188;80;21003;-49
2022/06/28 02:16:23;;;;;;;13.05;9.60;;;;;;;22.39;65.24;100866.17;1759556;79;21937;-49
2022/06/28 02:18:50;;;;;;;10.98;9.83;;;;;;;22.37;65.40;100868.22;1770468;79;21034;-49
2022/06/28 02:21:17;;;;;;;12.43;10.25;;;;;;;22.34;65.48;100865.42;1732523;82;21114;-49
2022/06/28 02:23:43;;;;;;;13.45;10.98;;;;;;;22.29;65.56;100862.45;1756704;79;21067;-49
2022/06/28 02:26:11;;;;;;;11.85;9.98;;;;;;;22.29;65.56;100852.24;1767292;79;21133;-49
2022/06/28 02:28:38;;;;;;;19.75;10.40;;;;;;;22.33;65.59;100854.88;1772105;79;21126;-49
2022/06/28 02:31:12;;;;;;;21.25;11.45;;;;;;;22.38;66.10;100863.19;1768171;79;21030;-49
2022/06/28 02:33:39;;;;;;;13.20;9.95;;;;;;;22.43;66.30;100860.77;1767349;79;21067;-49
2022/06/28 02:41:36;;;;;;;11.53;10.37;;;;;;;22.34;65.88;100868.10;1761128;79;21150;-49
2022/06/28 02:44:04;;;;;;;11.20;10.00;;;;;;;22.27;66.07;100867.14;1759783;79;21074;-49
2022/06/28 02:46:31;;;;;;;12.45;10.43;;;;;;;22.25;66.22;100870.52;1753175;79;21018;-49
2022/06/28 02:48:58;;;;;;;13.15;10.53;;;;;;;22.27;66.18;100872.50;1757796;79;21039;-49
2022/06/28 02:51:24;;;;;;;12.28;11.00;;;;;;;22.29;66.17;100869.15;1762518;79;20995;-51
2022/06/28 02:53:54;;;;;;;12.90;10.85;;;;;;;22.34;66.37;100865.91;1765762;79;21089;-49
2022/06/28 02:56:21;;;;;;;14.80;11.43;;;;;;;22.38;66.37;100865.87;1760483;79;21090;-49
2022/06/28 02:58:48;;;;;;;12.47;11.18;;;;;;;22.42;66.29;100865.28;1757230;79;21024;-49
2022/06/28 03:01:15;;;;;;;12.47;11.10;;;;;;;22.44;66.24;100867.28;1763303;79;21098;-49
2022/06/28 03:03:41;;;;;;;14.43;11.05;;;;;;;22.48;66.30;100864.20;1757214;79;21071;-49
2022/06/28 03:06:09;;;;;;;11.73;10.13;;;;;;;22.52;66.28;100864.16;1766542;79;21292;-49
2022/06/28 03:08:36;;;;;;;13.48;10.95;;;;;;;22.57;66.22;100859.88;1766642;79;21067;-49
2022/06/28 03:11:02;;;;;;;11.75;10.55;;;;;;;22.66;66.36;100863.78;1764365;79;21042;-49
2022/06/28 03:13:30;;;;;;;11.12;9.90;;;;;;;22.74;66.32;100865.00;1762532;80;21404;-49
2022/06/28 03:15:57;;;;;;;17.60;12.53;;;;;;;22.79;66.43;100864.73;1762899;79;21082;-49
2022/06/28 03:18:23;;;;;;;13.43;12.05;;;;;;;22.83;66.27;100862.53;1757036;80;21111;-49
2022/06/28 03:20:50;;;;;;;12.40;11.15;;;;;;;22.93;65.92;100856.81;1756002;80;21115;-49
2022/06/28 03:23:17;;;;;;;12.20;10.93;;;;;;;23.00;65.56;100859.06;1753131;80;21039;-49
2022/06/28 03:25:44;;;;;;;12.47;10.98;;;;;;;23.06;65.56;100857.45;1759372;80;21126;-49
2022/06/28 03:28:11;;;;;;;12.68;11.15;;;;;;;23.14;65.32;100855.48;1751904;80;21077;-49
2022/06/28 03:30:38;;;;;;;12.65;11.35;;;;;;;23.26;64.96;100850.41;1757830;80;21224;-49
2022/06/28 03:33:05;;;;;;;13.83;11.25;;;;;;;23.37;64.88;100854.43;1751254;80;21035;-49
2022/06/28 03:35:34;;;;;;;13.98;12.58;;;;;;;23.44;64.60;100852.61;1763933;79;21074;-49
2022/06/28 03:38:00;;;;;;;14.30;12.80;;;;;;;23.53;64.17;100856.79;1752200;80;21110;-49
2022/06/28 03:40:41;;;;;;;15.65;12.93;;;;;;;23.59;63.80;100857.87;1745056;81;21064;-49
2022/06/28 03:43:07;;;;;;;12.75;11.35;;;;;;;23.61;63.54;100857.16;1759697;80;21138;-49
2022/06/28 03:45:35;;;;;;;13.08;11.78;;;;;;;23.64;63.53;100863.48;1761346;80;21087;-49
2022/06/28 03:48:15;;;;;;;13.65;12.25;;;;;;;23.70;63.22;100861.36;1755079;80;20986;-49
2022/06/28 03:51:01;;;;;;;17.27;14.20;;;;;;;23.78;63.17;100857.67;1760271;80;21029;-49
2022/06/28 03:53:29;;;;;;;13.40;12.03;;;;;;;23.79;62.95;100859.34;1764300;80;21029;-49
2022/06/28 03:56:05;;;;;;;15.35;13.55;;;;;;;23.81;62.69;100864.52;1755230;79;21960;-51
2022/06/28 03:58:32;;;;;;;15.32;13.35;;;;;;;23.81;62.71;100861.83;1773937;79;21091;-49
2022/06/28 04:00:59;;;;;;;16.85;12.47;;;;;;;23.80;62.55;100865.53;1770788;80;21042;-49
2022/06/28 04:03:26;;;;;;;12.80;11.40;;;;;;;23.80;62.67;100863.66;1764429;80;21087;-49
2022/06/28 04:05:52;;;;;;;15.18;13.58;;;;;;;23.86;62.69;100864.26;1764163;80;21098;-49
2022/06/28 04:08:19;;;;;;;15.43;13.85;;;;;;;23.91;62.29;100867.70;1750301;80;21184;-49
2022/06/28 04:10:48;;;;;;;16.50;13.83;;;;;;;23.94;62.43;100860.59;1761750;79;21073;-50
2022/06/28 04:13:17;;;;;;;14.98;13.48;;;;;;;23.99;62.33;100864.00;1764032;80;21118;-49
2022/06/28 04:15:44;;;;;;;15.83;14.10;;;;;;;24.01;62.13;100860.63;1761199;80;21158;-48
2022/06/28 04:18:12;;;;;;;15.38;13.28;;;;;;;24.03;62.08;100866.62;1742718;80;21186;-49
2022/06/28 04:20:58;;;;;;;13.30;11.65;;;;;;;24.07;61.93;100863.83;1730727;81;23198;-49
2022/06/28 04:23:25;;;;;;;16.32;14.07;;;;;;;24.14;61.72;100861.17;1663070;84;21054;-49
2022/06/28 04:25:52;;;;;;;14.83;13.25;;;;;;;24.18;61.69;100850.34;1694945;83;21058;-49
2022/06/28 04:28:20;;;;;;;13.88;12.45;;;;;;;24.21;61.72;100852.61;1698665;83;21573;-49
2022/06/28 04:31:06;;;;;;;14.47;12.93;;;;;;;24.22;61.72;100854.27;1692929;83;21086;-50
2022/06/28 04:33:33;;;;;;;14.70;13.15;;;;;;;24.21;61.77;100848.57;1696437;83;21150;-49
2022/06/28 04:36:00;;;;;;;14.40;13.00;;;;;;;24.21;61.82;100856.14;1726085;82;21053;-49
2022/06/28 04:38:28;;;;;;;15.55;12.70;;;;;;;24.23;61.91;100852.73;1722277;82;21091;-49
2022/06/28 04:41:05;;;;;;;14.10;12.10;;;;;;;24.28;61.99;100847.58;1722754;81;21593;-49
2022/06/28 04:43:34;;;;;;;15.55;12.78;;;;;;;24.35;61.94;100852.98;1711148;82;21087;-49
2022/06/28 04:46:01;;;;;;;14.60;13.08;;;;;;;24.40;61.84;100855.88;1728846;81;21135;-49
2022/06/28 04:48:29;;;;;;;14.07;12.68;;;;;;;24.44;61.66;100857.65;1697436;82;21002;-50
2022/06/28 04:50:55;;;;;;;14.18;12.78;;;;;;;24.45;61.45;100857.98;1725582;81;21103;-49
2022/06/28 04:53:22;;;;;;;13.48;12.03;;;;;;;24.48;61.56;100858.92;1707632;81;21124;-49
2022/06/28 04:55:51;;;;;;;13.65;12.28;;;;;;;24.53;61.32;100852.91;1726534;81;21667;-50
2022/06/28 04:58:17;;;;;;;14.20;12.75;;;;;;;24.63;61.03;100849.36;1728977;81;21657;-49
2022/06/28 05:00:44;;;;;;;15.83;11.90;;;;;;;24.70;60.55;100857.45;1725530;82;21109;-49
2022/06/28 05:03:12;;;;;;;13.78;12.35;;;;;;;24.75;60.64;100849.59;1726254;81;21134;-50
2022/06/28 05:05:41;;;;;;;13.60;12.13;;;;;;;24.81;60.98;100846.05;1726027;81;21590;-49
2022/06/28 05:08:08;;;;;;;14.85;13.15;;;;;;;24.89;60.65;100845.86;1720045;81;21502;-49
2022/06/28 05:10:36;;;;;;;13.90;12.50;;;;;;;24.92;60.34;100844.10;1723243;81;21200;-49
2022/06/28 05:13:08;;;;;;;12.95;11.65;;;;;;;24.96;60.25;100852.06;1726363;82;21098;-49
2022/06/28 05:15:35;;;;;;;14.30;12.80;;;;;;;25.01;59.73;100849.58;1725541;82;21055;-49
2022/06/28 05:18:05;;;;;;;18.60;11.88;;;;;;;25.13;59.93;100851.66;1733765;82;20985;-50
2022/06/28 05:20:32;;;;;;;13.62;12.23;;;;;;;25.21;59.58;100848.75;1740532;80;21134;-50
2022/06/28 05:22:58;;;;;;;13.55;11.75;;;;;;;25.30;59.57;100848.89;1734658;82;21117;-49
2022/06/28 05:25:26;;;;;;;12.53;11.20;;;;;;;25.36;59.38;100844.00;1713206;82;21039;-49
2022/06/28 05:27:53;;;;;;;14.23;12.82;;;;;;;25.43;59.03;100845.86;1714480;82;21055;-49
2022/06/28 05:30:22;;;;;;;14.80;13.28;;;;;;;25.44;58.45;100841.62;1705810;82;21047;-49
2022/06/28 05:32:49;;;;;;;13.18;11.93;;;;;;;25.47;58.55;100841.70;1740793;82;21102;-50
2022/06/28 05:35:15;;;;;;;15.98;12.15;;;;;;;25.49;58.53;100845.03;1718912;82;21538;-50
2022/06/28 05:37:42;;;;;;;13.90;12.50;;;;;;;25.54;58.17;100839.31;1705891;82;21537;-47
2022/06/28 05:40:11;;;;;;;14.70;12.43;;;;;;;25.66;58.05;100830.06;1708155;82;21549;-48
2022/06/28 05:42:38;;;;;;;12.60;11.35;;;;;;;25.76;57.97;100830.97;1710108;82;21090;-48
2022/06/28 05:45:06;;;;;;;12.55;11.22;;;;;;;25.85;57.87;100828.86;1706698;82;21420;-48
2022/06/28 05:47:33;;;;;;;19.37;12.53;;;;;;;25.92;57.77;100827.80;1717660;82;22419;-49
2022/06/28 05:49:59;;;;;;;12.37;11.18;;;;;;;26.00;56.85;100825.39;1716441;82;21502;-49
2022/06/28 05:52:26;;;;;;;14.75;13.00;;;;;;;26.03;56.88;100828.20;1741707;81;21157;-49
2022/06/28 05:54:52;;;;;;;13.30;12.00;;;;;;;26.08;57.06;100827.85;1688964;83;21130;-49
2022/06/28 05:57:19;;;;;;;14.15;12.75;;;;;;;26.12;56.63;100822.32;1741806;80;21062;-48
2022/06/28 05:59:47;;;;;;;14.73;13.32;;;;;;;26.17;56.76;100828.95;1724588;82;21130;-48
2022/06/28 06:02:14;;;;;;;14.03;12.55;;;;;;;26.21;56.62;100833.72;1718047;81;21012;-50
2022/06/28 06:04:40;;;;;;;12.20;11.00;;;;;;;26.24;56.71;100823.84;1723118;81;21063;-48
2022/06/28 06:07:07;;;;;;;13.40;12.05;;;;;;;26.33;56.35;100836.55;1715547;82;21007;-48
2022/06/28 06:09:34;;;;;;;15.48;12.40;;;;;;;26.45;56.33;100832.11;1726235;81;21134;-50
2022/06/28 06:12:04;;;;;;;13.30;12.10;;;;;;;26.56;55.96;100826.53;1706829;82;21142;-49
2022/06/28 06:14:32;;;;;;;13.45;12.15;;;;;;;26.65;55.87;100830.66;1716037;82;21465;-48
2022/06/28 06:16:59;;;;;;;13.83;12.30;;;;;;;26.76;55.67;100826.42;1714257;82;21047;-48
2022/06/28 06:19:25;;;;;;;12.03;10.93;;;;;;;26.84;55.14;100827.50;1710420;82;21569;-49
2022/06/28 06:21:53;;;;;;;13.60;12.20;;;;;;;26.89;54.43;100824.16;1763851;79;21087;-49
2022/06/28 06:24:20;;;;;;;12.75;11.40;;;;;;;26.96;54.08;100822.74;1749021;79;21376;-49
2022/06/28 06:26:51;;;;;;;12.70;11.50;;;;;;;27.00;53.75;100830.19;1764903;79;21046;-49
2022/06/28 06:29:17;;;;;;;12.33;11.22;;;;;;;27.06;53.69;100828.47;1761948;79;21134;-49
2022/06/28 06:31:44;;;;;;;12.50;11.30;;;;;;;27.12;53.18;100824.05;1766555;79;21463;-49
2022/06/28 06:34:22;;;;;;;11.57;10.15;;;;;;;27.15;53.37;100813.65;1755163;79;21094;-49
2022/06/28 06:36:50;;;;;;;11.22;10.13;;;;;;;27.22;53.24;100815.75;1770665;79;21320;-49
2022/06/28 06:39:17;;;;;;;12.65;10.90;;;;;;;27.29;53.18;100813.55;1762455;80;21522;-49
2022/06/28 06:41:45;;;;;;;10.63;9.53;;;;;;;27.35;53.31;100813.48;1770138;79;21545;-49
2022/06/28 06:44:12;;;;;;;10.85;9.78;;;;;;;27.42;52.18;100814.77;1761937;79;21069;-49
2022/06/28 06:46:40;;;;;;;9.93;8.33;;;;;;;27.49;52.21;100810.11;1769271;79;21114;-49
2022/06/28 06:49:07;;;;;;;9.65;8.65;;;;;;;27.56;50.88;100812.74;1760788;80;21135;-48
2022/06/28 06:51:33;;;;;;;8.73;7.83;;;;;;;27.65;49.93;100811.91;1771824;79;20999;-49
2022/06/28 06:54:00;;;;;;;10.48;9.33;;;;;;;27.70;50.17;100813.41;1769029;79;21106;-49
2022/06/28 06:56:27;;;;;;;9.80;8.75;;;;;;;27.77;49.31;100819.05;1765561;79;21110;-49
2022/06/28 06:58:54;;;;;;;10.55;8.08;;;;;;;27.83;49.09;100817.30;1771454;79;21077;-49
2022/06/28 07:01:21;;;;;;;10.25;7.80;;;;;;;27.90;49.76;100814.52;1768453;79;21063;-49
2022/06/28 07:03:48;;;;;;;10.13;8.08;;;;;;;27.95;49.18;100816.86;1764032;79;21063;-49
2022/06/28 07:06:15;;;;;;;9.60;8.23;;;;;;;28.03;49.12;100818.44;1763205;79;21090;-49
2022/06/28 07:08:41;;;;;;;9.75;8.53;;;;;;;28.14;48.97;100816.83;1771617;79;21299;-49
2022/06/28 07:11:09;;;;;;;9.58;8.18;;;;;;;28.25;47.96;100812.53;1765772;80;21067;-49
2022/06/28 07:13:36;;;;;;;8.30;7.40;;;;;;;28.32;48.30;100811.90;1750074;79;21135;-49
2022/06/28 07:16:04;;;;;;;10.25;7.12;;;;;;;28.38;48.64;100811.50;1770233;79;21007;-49
2022/06/28 07:18:30;;;;;;;8.20;7.40;;;;;;;28.45;47.78;100806.83;1773487;79;21561;-49
2022/06/28 07:20:57;;;;;;;7.62;6.83;;;;;;;28.55;47.82;100798.97;1752501;80;21040;-49
2022/06/28 07:23:24;;;;;;;7.03;6.33;;;;;;;28.65;46.87;100799.79;1744935;80;21125;-49
2022/06/28 07:25:51;;;;;;;9.45;6.28;;;;;;;28.76;46.89;100803.56;1764204;80;21094;-48
2022/06/28 07:28:18;;;;;;;8.20;6.05;;;;;;;28.86;47.09;100798.39;1762647;80;21004;-49
2022/06/28 07:30:46;;;;;;;7.55;5.87;;;;;;;29.00;45.78;100812.01;1772661;80;22290;-49
2022/06/28 07:33:14;;;;;;;6.75;5.95;;;;;;;29.13;46.22;100812.28;1765461;80;21093;-49
2022/06/28 07:35:41;;;;;;;6.53;5.42;;;;;;;29.30;46.45;100810.25;1763394;80;22348;-49
2022/06/28 07:38:08;;;;;;;8.43;5.92;;;;;;;29.41;45.78;100817.55;1769657;80;21191;-49
2022/06/28 07:40:53;;;;;;;6.70;5.47;;;;;;;29.51;45.27;100816.42;1759303;80;21069;-49
2022/06/28 07:43:34;;;;;;;6.58;5.28;;;;;;;29.60;44.40;100822.29;1704778;80;21039;-49
2022/06/28 07:46:05;;;;;;;7.30;5.62;;;;;;;29.70;44.18;100825.75;1765147;80;21118;-49
2022/06/28 07:48:32;;;;;;;7.00;5.25;;;;;;;29.77;43.83;100821.04;1768952;80;21114;-49
2022/06/28 07:53:46;;;;;;;7.20;5.37;;;;;;;29.87;42.38;100813.11;1766088;80;21114;-49
2022/06/28 07:56:20;;;;;;;7.42;5.90;;;;;;;29.90;41.90;100808.56;1740780;81;21608;-49
2022/06/28 07:58:48;;;;;;;9.33;5.72;;;;;;;29.91;41.55;100806.15;1757346;79;21416;-49
2022/06/28 08:01:16;;;;;;;6.30;5.20;;;;;;;29.93;42.59;100815.41;1778400;79;21015;-48
2022/06/28 08:03:43;;;;;;;6.87;5.12;;;;;;;29.93;41.94;100809.44;1765473;80;21123;-48
2022/06/28 08:06:10;;;;;;;6.97;6.03;;;;;;;29.97;42.34;100812.48;1769483;80;21554;-49
2022/06/28 08:08:44;;;;;;;8.00;5.35;;;;;;;30.03;41.75;100815.60;1767031;80;21038;-49
2022/06/28 08:11:11;;;;;;;6.20;5.15;;;;;;;30.07;42.19;100815.39;1764547;80;21035;-49
2022/06/28 08:13:38;;;;;;;9.43;5.67;;;;;;;30.11;41.79;100821.16;1735411;81;21114;-48
2022/06/28 08:16:05;;;;;;;7.30;5.53;;;;;;;30.14;41.99;100814.73;1774763;80;22136;-49
2022/06/28 08:18:32;;;;;;;7.25;5.95;;;;;;;30.20;41.65;100809.67;1774402;80;21093;-48
2022/06/28 08:20:59;;;;;;;8.38;5.75;;;;;;;30.29;42.02;100812.00;1771577;79;21050;-49
2022/06/28 08:23:26;;;;;;;7.37;5.42;;;;;;;30.35;41.59;100806.96;1776479;79;21034;-49
2022/06/28 08:25:52;;;;;;;8.28;5.45;;;;;;;30.40;42.17;100804.36;1776805;79;21077;-49
2022/06/28 08:28:19;;;;;;;6.40;5.72;;;;;;;30.43;41.70;100801.16;1732092;81;21090;-49
2022/06/28 08:30:45;;;;;;;6.30;5.20;;;;;;;30.47;41.14;100796.87;1715673;81;22016;-48
2022/06/28 08:33:12;;;;;;;6.62;5.05;;;;;;;30.47;40.76;100798.23;1772578;79;21039;-48
2022/06/28 08:35:39;;;;;;;6.83;5.35;;;;;;;30.48;41.20;100805.33;1784185;79;21046;-48
2022/06/28 08:38:06;;;;;;;6.95;4.97;;;;;;;30.48;40.47;100802.61;1773984;79;21085;-49
2022/06/28 08:40:34;;;;;;;6.85;5.20;;;;;;;30.47;39.58;100804.20;1766480;79;21077;-49
2022/06/28 08:43:01;;;;;;;6.40;5.17;;;;;;;30.43;40.55;100810.66;1760306;79;21053;-49
2022/06/28 08:45:28;;;;;;;7.45;4.90;;;;;;;30.43;39.98;100803.03;1773627;79;20963;-48
2022/06/28 08:47:56;;;;;;;7.08;5.60;;;;;;;30.43;40.06;100793.02;1767714;79;21007;-49
2022/06/28 08:50:40;;;;;;;6.95;5.78;;;;;;;30.47;39.78;100792.80;1764049;79;21549;-49
2022/06/28 08:53:06;;;;;;;6.05;5.00;;;;;;;30.50;39.22;100791.50;1766216;79;22253;-49
2022/06/28 08:55:34;;;;;;;5.97;5.08;;;;;;;30.51;39.21;100781.76;1766076;79;21089;-48
2022/06/28 08:58:03;;;;;;;6.17;5.58;;;;;;;30.52;40.27;100786.10;1769408;79;21546;-48
2022/06/28 09:00:30;;;;;;;5.55;4.78;;;;;;;30.56;40.12;100781.84;1773126;79;21081;-48
2022/06/28 09:02:57;;;;;;;6.85;5.12;;;;;;;30.64;40.48;100786.56;1776576;79;21063;-48
2022/06/28 09:05:25;;;;;;;6.25;4.87;;;;;;;30.72;39.51;100783.44;1753235;79;21138;-48
2022/06/28 09:07:54;;;;;;;6.47;4.83;;;;;;;30.81;39.80;100778.41;1767498;79;21427;-49
2022/06/28 09:10:21;;;;;;;6.40;4.90;;;;;;;30.90;40.07;100781.82;1764897;79;21066;-48
2022/06/28 09:12:57;;;;;;;6.90;4.95;;;;;;;30.97;39.44;100777.61;1766511;80;21626;-48
2022/06/28 09:15:24;;;;;;;5.25;4.53;;;;;;;30.99;39.69;100774.09;1768335;79;21077;-49
2022/06/28 09:17:54;;;;;;;5.65;4.83;;;;;;;31.07;40.44;100768.78;1764725;79;21098;-49
2022/06/28 09:20:25;;;;;;;6.60;5.28;;;;;;;31.15;39.66;100766.97;1768199;79;21041;-49
2022/06/28 09:22:52;;;;;;;7.03;5.20;;;;;;;31.22;39.62;100768.14;1739778;80;21102;-48
2022/06/28 09:25:28;;;;;;;6.65;4.85;;;;;;;31.22;38.97;100766.27;1767819;79;21043;-49
2022/06/28 09:27:59;;;;;;;7.37;5.20;;;;;;;31.17;38.77;100764.00;1771753;79;21521;-49
2022/06/28 09:30:28;;;;;;;5.90;5.25;;;;;;;31.14;38.64;100758.55;1769480;79;21755;-48
2022/06/28 09:32:54;;;;;;;5.20;4.47;;;;;;;31.16;38.75;100758.30;1766290;79;21086;-48
2022/06/28 09:35:24;;;;;;;6.15;5.15;;;;;;;31.17;38.46;100755.33;1766377;79;21062;-48
2022/06/28 09:37:51;;;;;;;6.40;4.97;;;;;;;31.17;37.91;100762.64;1733908;80;21114;-48
2022/06/28 09:40:20;;;;;;;6.05;5.10;;;;;;;31.14;37.48;100752.30;1777104;79;21059;-49
2022/06/28 09:43:11;;;;;;;7.03;5.33;;;;;;;31.18;37.85;100750.16;1772054;79;21091;-48
2022/06/28 09:45:43;;;;;;;6.20;5.25;;;;;;;31.20;37.53;100742.58;1770624;79;21085;-48
2022/06/28 09:48:18;;;;;;;6.05;4.83;;;;;;;31.22;37.93;100749.96;1766307;79;21125;-48
2022/06/28 09:50:44;;;;;;;6.12;4.40;;;;;;;31.26;37.62;100747.55;1766679;79;21102;-48
2022/06/28 09:53:19;;;;;;;7.20;5.00;;;;;;;31.28;36.65;100738.61;1769400;80;21073;-48
2022/06/28 09:55:45;;;;;;;8.65;5.50;;;;;;;31.29;37.56;100741.08;1759662;79;22442;-49
2022/06/28 09:58:12;;;;;;;6.35;4.83;;;;;;;31.33;37.15;100742.75;1765737;79;21566;-48
2022/06/28 10:00:41;;;;;;;5.50;4.45;;;;;;;31.38;36.90;100737.92;1769148;79;21573;-48
2022/06/28 10:03:08;;;;;;;6.53;5.08;;;;;;;31.44;37.99;100743.72;1760850;79;21122;-48
2022/06/28 10:05:35;;;;;;;6.50;5.33;;;;;;;31.53;37.51;100742.20;1760086;79;21608;-48
2022/06/28 10:08:02;;;;;;;6.25;4.90;;;;;;;31.62;37.78;100738.49;1764457;79;21456;-50
2022/06/28 10:10:30;;;;;;;6.53;5.33;;;;;;;31.69;37.92;100738.30;1761709;79;21094;-48
2022/06/28 10:15:50;;;;;;;6.40;4.55;;;;;;;31.75;36.53;100731.84;1756555;79;21063;-48
2022/06/28 10:18:18;;;;;;;;;;;;;;;31.78;36.62;100726.70;1775007;79;21093;-49
2022/06/28 10:20:46;;;;;;;9.15;4.95;;;;;;;31.81;36.45;100719.40;1770666;79;21130;-49
2022/06/28 10:23:26;;;;;;;6.08;5.05;;;;;;;31.85;36.31;100721.87;1768245;79;21060;-48
2022/06/28 10:26:19;;;;;;;7.22;4.87;;;;;;;31.94;36.51;100717.33;1761365;79;20998;-49
2022/06/28 10:29:00;;;;;;;6.12;5.28;;;;;;;31.97;35.58;100715.47;1755295;79;21070;-48
2022/06/28 10:31:31;;;;;;;5.87;4.67;;;;;;;32.03;36.97;100711.72;1772214;79;21082;-48
2022/06/28 10:46:15;;;;;;;6.78;5.10;;;;;;;33.28;34.12;100698.70;1861783;76;22638;-49
2022/06/28 10:48:53;;;;;;;6.03;5.30;;;;;;;33.42;34.72;100706.67;1821313;78;20970;-48
2022/06/28 10:51:20;;;;;;;6.90;5.37;;;;;;;33.54;35.43;100688.70;1820238;77;21748;-49
2022/06/28 10:54:04;;;;;;;7.95;5.62;;;;;;;33.61;35.81;100693.91;1812141;78;21561;-48
2022/06/28 10:56:29;;;;;;;6.30;5.45;;;;;;;33.65;33.57;100696.36;1807230;77;21444;-50
2022/06/28 10:58:59;;;;;;;6.87;5.35;;;;;;;33.57;33.29;100689.50;1819926;77;20978;-49
2022/06/28 11:01:45;;;;;;;6.85;5.50;;;;;;;33.48;33.22;100693.31;1817441;77;21013;-49
2022/06/28 11:04:24;;;;;;;6.80;5.50;;;;;;;33.46;33.35;100694.13;1789416;78;21128;-49
2022/06/28 11:07:05;;;;;;;6.37;5.15;;;;;;;33.53;33.25;100691.15;1823036;78;21572;-49
2022/06/28 11:09:55;;;;;;;6.67;5.58;;;;;;;33.55;34.00;100683.51;1820280;77;20947;-49
2022/06/28 11:12:35;;;;;;;6.65;5.47;;;;;;;33.61;34.03;100688.45;1822608;77;21029;-48
2022/06/28 11:15:05;;;;;;;6.42;5.80;;;;;;;33.68;34.10;100687.11;1799919;78;21088;-49
2022/06/28 11:17:44;;;;;;;6.12;5.53;;;;;;;33.70;34.20;100685.48;1781882;78;21132;-48
2022/06/28 11:20:17;;;;;;;7.12;6.40;;;;;;;33.73;35.31;100684.14;1780354;79;21036;-49
2022/06/28 11:22:51;;;;;;;6.83;6.00;;;;;;;33.76;33.99;100674.86;1787761;78;21045;-49
2022/06/28 11:25:23;;;;;;;7.20;6.40;;;;;;;33.80;34.34;100671.84;1748861;79;21061;-48
2022/06/28 11:27:56;;;;;;;7.17;6.45;;;;;;;33.87;33.48;100671.02;1771741;80;21506;-49
2022/06/28 11:30:28;;;;;;;7.28;6.58;;;;;;;33.79;34.53;100670.23;1761034;79;21849;-48
2022/06/28 11:32:57;;;;;;;8.33;6.72;;;;;;;33.63;34.91;100673.44;1772277;79;21684;-49
2022/06/28 11:35:27;;;;;;;7.17;6.25;;;;;;;33.55;34.90;100673.95;1765469;80;21125;-49
2022/06/28 11:38:00;;;;;;;7.90;6.70;;;;;;;33.50;35.03;100678.85;1759723;80;21019;-49
2022/06/28 11:40:30;;;;;;;8.03;6.58;;;;;;;33.49;35.43;100670.41;1758290;80;21121;-48
2022/06/28 11:43:05;;;;;;;7.97;7.03;;;;;;;33.53;35.64;100672.05;1760791;79;21144;-48
2022/06/28 11:45:36;;;;;;;7.60;6.80;;;;;;;33.57;34.69;100671.77;1758002;79;21054;-49
2022/06/28 11:48:10;;;;;;;8.23;5.90;;;;;;;33.58;34.54;100661.70;1772490;79;21002;-49
2022/06/28 11:50:47;;;;;;;7.17;6.47;;;;;;;33.59;34.81;100660.59;1732662;80;21115;-51
2022/06/28 11:53:15;;;;;;;7.90;6.40;;;;;;;33.65;34.29;100654.06;1752332;80;21121;-48